sensor_id;sensor_type;location;lat;lon;timestamp;pressure;altitude;pressure_sealevel;temperature;humidity
72428;BME280;60419;48.880;18.036;2024-01-11T00:01:08;100425.81;;;-6.19;64.33
72428;BME280;60419;48.880;18.036;2024-01-11T00:03:55;100417.63;;;-6.08;63.63
72428;BME280;60419;48.880;18.036;2024-01-11T00:06:44;100415.81;;;-6.23;63.44
72428;BME280;60419;48.880;18.036;2024-01-11T00:09:30;100409.06;;;-6.18;63.03
72428;BME280;60419;48.880;18.036;2024-01-11T00:12:15;100412.03;;;-6.21;63.82
72428;BME280;60419;48.880;18.036;2024-01-11T00:15:00;100410.69;;;-6.17;62.93
72428;BME280;60419;48.880;18.036;2024-01-11T00:17:46;100392.81;;;-6.13;62.98
72428;BME280;60419;48.880;18.036;2024-01-11T00:20:31;100398.22;;;-5.98;62.12
72428;BME280;60419;48.880;18.036;2024-01-11T00:23:17;100400.69;;;-6.05;61.88
72428;BME280;60419;48.880;18.036;2024-01-11T00:26:02;100397.25;;;-6.06;61.95
72428;BME280;60419;48.880;18.036;2024-01-11T00:28:47;100392.41;;;-6.59;63.27
72428;BME280;60419;48.880;18.036;2024-01-11T00:31:33;100405.22;;;-6.48;63.83
72428;BME280;60419;48.880;18.036;2024-01-11T00:34:18;100400.34;;;-6.26;63.05
72428;BME280;60419;48.880;18.036;2024-01-11T00:37:04;100396.88;;;-6.19;62.45
72428;BME280;60419;48.880;18.036;2024-01-11T00:39:49;100394.91;;;-6.33;62.87
72428;BME280;60419;48.880;18.036;2024-01-11T00:42:35;100407.34;;;-6.60;63.58
72428;BME280;60419;48.880;18.036;2024-01-11T00:45:20;100404.44;;;-6.32;63.77
72428;BME280;60419;48.880;18.036;2024-01-11T00:48:06;100395.59;;;-6.23;62.84
72428;BME280;60419;48.880;18.036;2024-01-11T00:50:51;100400.34;;;-6.26;63.05
72428;BME280;60419;48.880;18.036;2024-01-11T00:53:36;100398.22;;;-6.31;62.57
72428;BME280;60419;48.880;18.036;2024-01-11T00:56:22;100404.00;;;-6.86;64.23
72428;BME280;60419;48.880;18.036;2024-01-11T00:59:07;100393.53;;;-6.70;64.17
72428;BME280;60419;48.880;18.036;2024-01-11T01:01:53;100400.59;;;-6.62;63.71
72428;BME280;60419;48.880;18.036;2024-01-11T01:04:38;100382.91;;;-6.36;62.86
72428;BME280;60419;48.880;18.036;2024-01-11T01:07:24;100387.84;;;-6.41;62.62
72428;BME280;60419;48.880;18.036;2024-01-11T01:10:09;100378.81;;;-6.30;62.44
72428;BME280;60419;48.880;18.036;2024-01-11T01:12:54;100368.28;;;-6.30;61.81
72428;BME280;60419;48.880;18.036;2024-01-11T01:15:40;100379.81;;;-6.31;61.45
72428;BME280;60419;48.880;18.036;2024-01-11T01:18:25;100376.50;;;-6.33;61.39
72428;BME280;60419;48.880;18.036;2024-01-11T01:21:11;100384.06;;;-6.38;61.70
72428;BME280;60419;48.880;18.036;2024-01-11T01:23:56;100377.13;;;-6.56;63.35
72428;BME280;60419;48.880;18.036;2024-01-11T01:26:41;100382.63;;;-6.91;63.85
72428;BME280;60419;48.880;18.036;2024-01-11T01:29:27;100387.78;;;-7.16;65.29
72428;BME280;60419;48.880;18.036;2024-01-11T01:32:12;100386.88;;;-7.07;64.33
72428;BME280;60419;48.880;18.036;2024-01-11T01:34:58;100377.78;;;-6.62;64.18
72428;BME280;60419;48.880;18.036;2024-01-11T01:37:43;100379.72;;;-6.72;63.83
72428;BME280;60419;48.880;18.036;2024-01-11T01:40:30;100374.50;;;-6.47;63.51
72428;BME280;60419;48.880;18.036;2024-01-11T01:43:17;100364.97;;;-6.40;62.82
72428;BME280;60419;48.880;18.036;2024-01-11T01:46:03;100347.06;;;-6.53;62.46
72428;BME280;60419;48.880;18.036;2024-01-11T01:48:50;100364.34;;;-6.26;62.20
72428;BME280;60419;48.880;18.036;2024-01-11T01:51:36;100357.28;;;-6.34;61.90
72428;BME280;60419;48.880;18.036;2024-01-11T01:54:23;100355.78;;;-6.36;61.87
72428;BME280;60419;48.880;18.036;2024-01-11T01:57:10;100355.28;;;-6.40;61.67
72428;BME280;60419;48.880;18.036;2024-01-11T01:59:57;100349.53;;;-6.35;61.57
72428;BME280;60419;48.880;18.036;2024-01-11T02:02:43;100351.97;;;-6.66;63.62
72428;BME280;60419;48.880;18.036;2024-01-11T02:05:30;100336.06;;;-6.57;62.56
72428;BME280;60419;48.880;18.036;2024-01-11T02:08:16;100326.69;;;-6.51;62.27
72428;BME280;60419;48.880;18.036;2024-01-11T02:11:05;100329.47;;;-6.61;63.00
72428;BME280;60419;48.880;18.036;2024-01-11T02:13:50;100340.19;;;-7.82;66.49
72428;BME280;60419;48.880;18.036;2024-01-11T02:16:37;100337.28;;;-8.22;69.95
72428;BME280;60419;48.880;18.036;2024-01-11T02:19:22;100315.72;;;-7.90;68.28
72428;BME280;60419;48.880;18.036;2024-01-11T02:22:14;100293.63;;;-8.32;69.47
72428;BME280;60419;48.880;18.036;2024-01-11T02:25:01;100288.44;;;-7.71;67.93
72428;BME280;60419;48.880;18.036;2024-01-11T02:27:48;100332.53;;;-7.49;66.80
72428;BME280;60419;48.880;18.036;2024-01-11T02:30:34;100323.63;;;-7.82;68.24
72428;BME280;60419;48.880;18.036;2024-01-11T02:33:19;100324.72;;;-7.67;68.14
72428;BME280;60419;48.880;18.036;2024-01-11T02:36:05;100320.63;;;-7.27;66.91
72428;BME280;60419;48.880;18.036;2024-01-11T02:38:52;100321.56;;;-6.93;65.41
72428;BME280;60419;48.880;18.036;2024-01-11T02:41:38;100312.03;;;-6.78;64.20
72428;BME280;60419;48.880;18.036;2024-01-11T02:44:24;100297.91;;;-6.77;63.72
72428;BME280;60419;48.880;18.036;2024-01-11T02:47:09;100302.84;;;-6.66;62.76
72428;BME280;60419;48.880;18.036;2024-01-11T02:49:55;100298.44;;;-6.57;62.17
72428;BME280;60419;48.880;18.036;2024-01-11T02:52:41;100280.38;;;-6.60;61.92
72428;BME280;60419;48.880;18.036;2024-01-11T02:55:26;100235.97;;;-6.88;61.63
72428;BME280;60419;48.880;18.036;2024-01-11T02:58:11;100279.84;;;-6.64;61.76
72428;BME280;60419;48.880;18.036;2024-01-11T03:00:57;100285.91;;;-6.80;62.92
72428;BME280;60419;48.880;18.036;2024-01-11T03:03:42;100282.47;;;-6.97;63.29
72428;BME280;60419;48.880;18.036;2024-01-11T03:06:28;100284.06;;;-8.15;68.15
72428;BME280;60419;48.880;18.036;2024-01-11T03:09:13;100277.44;;;-7.41;66.37
72428;BME280;60419;48.880;18.036;2024-01-11T03:11:58;100278.69;;;-7.53;65.75
72428;BME280;60419;48.880;18.036;2024-01-11T03:14:44;100268.31;;;-7.20;65.20
72428;BME280;60419;48.880;18.036;2024-01-11T03:17:29;100277.97;;;-7.21;65.94
72428;BME280;60419;48.880;18.036;2024-01-11T03:20:14;100278.69;;;-7.87;67.64
72428;BME280;60419;48.880;18.036;2024-01-11T03:23:01;100271.09;;;-7.64;67.47
72428;BME280;60419;48.880;18.036;2024-01-11T03:25:46;100264.47;;;-7.34;66.35
72428;BME280;60419;48.880;18.036;2024-01-11T03:28:32;100268.13;;;-7.19;66.03
72428;BME280;60419;48.880;18.036;2024-01-11T03:31:17;100267.34;;;-7.03;64.46
72428;BME280;60419;48.880;18.036;2024-01-11T03:34:02;100271.94;;;-6.88;63.86
72428;BME280;60419;48.880;18.036;2024-01-11T03:36:48;100270.16;;;-7.04;63.89
72428;BME280;60419;48.880;18.036;2024-01-11T03:39:34;100271.13;;;-6.97;63.65
72428;BME280;60419;48.880;18.036;2024-01-11T03:42:19;100277.13;;;-7.29;65.03
72428;BME280;60419;48.880;18.036;2024-01-11T03:45:05;100275.72;;;-6.91;64.07
72428;BME280;60419;48.880;18.036;2024-01-11T03:47:50;100267.03;;;-6.83;63.44
72428;BME280;60419;48.880;18.036;2024-01-11T03:50:36;100266.88;;;-6.98;63.31
72428;BME280;60419;48.880;18.036;2024-01-11T03:53:21;100257.66;;;-6.86;63.07
72428;BME280;60419;48.880;18.036;2024-01-11T03:56:07;100256.47;;;-7.16;63.26
72428;BME280;60419;48.880;18.036;2024-01-11T03:58:52;100252.41;;;-7.02;63.28
72428;BME280;60419;48.880;18.036;2024-01-11T04:01:41;100252.41;;;-7.02;62.84
72428;BME280;60419;48.880;18.036;2024-01-11T04:04:26;100243.81;;;-7.21;63.01
72428;BME280;60419;48.880;18.036;2024-01-11T04:07:12;100247.31;;;-7.04;62.84
72428;BME280;60419;48.880;18.036;2024-01-11T04:09:57;100244.03;;;-6.98;62.54
72428;BME280;60419;48.880;18.036;2024-01-11T04:12:43;100252.41;;;-7.02;62.39
72428;BME280;60419;48.880;18.036;2024-01-11T04:15:28;100216.59;;;-7.28;63.21
72428;BME280;60419;48.880;18.036;2024-01-11T04:18:13;100256.84;;;-7.62;64.84
72428;BME280;60419;48.880;18.036;2024-01-11T04:20:59;100255.09;;;-7.36;64.76
72428;BME280;60419;48.880;18.036;2024-01-11T04:23:44;100243.53;;;-7.18;63.88
72428;BME280;60419;48.880;18.036;2024-01-11T04:26:30;100238.09;;;-7.08;63.34
72428;BME280;60419;48.880;18.036;2024-01-11T04:29:15;100235.34;;;-7.06;62.88
72428;BME280;60419;48.880;18.036;2024-01-11T04:32:01;100239.91;;;-7.08;62.47
72428;BME280;60419;48.880;18.036;2024-01-11T04:34:46;100237.41;;;-7.26;62.58
72428;BME280;60419;48.880;18.036;2024-01-11T04:37:32;100246.44;;;-7.21;62.96
72428;BME280;60419;48.880;18.036;2024-01-11T04:40:17;100257.94;;;-7.72;64.17
72428;BME280;60419;48.880;18.036;2024-01-11T04:43:02;100251.78;;;-7.47;64.55
72428;BME280;60419;48.880;18.036;2024-01-11T04:45:48;100245.75;;;-7.39;65.44
72428;BME280;60419;48.880;18.036;2024-01-11T04:48:34;100243.53;;;-7.18;65.07
72428;BME280;60419;48.880;18.036;2024-01-11T04:51:19;100244.69;;;-7.04;63.56
72428;BME280;60419;48.880;18.036;2024-01-11T04:54:05;100239.94;;;-7.00;63.52
72428;BME280;60419;48.880;18.036;2024-01-11T04:56:50;100252.03;;;-7.16;64.04
72428;BME280;60419;48.880;18.036;2024-01-11T04:59:36;100239.09;;;-7.09;63.61
72428;BME280;60419;48.880;18.036;2024-01-11T05:02:21;100228.44;;;-7.07;63.46
72428;BME280;60419;48.880;18.036;2024-01-11T05:05:06;100239.78;;;-6.99;62.90
72428;BME280;60419;48.880;18.036;2024-01-11T05:07:52;100245.75;;;-7.31;63.19
72428;BME280;60419;48.880;18.036;2024-01-11T05:10:37;100257.63;;;-7.19;63.29
72428;BME280;60419;48.880;18.036;2024-01-11T05:13:22;100258.81;;;-7.55;64.68
72428;BME280;60419;48.880;18.036;2024-01-11T05:16:26;100247.44;;;-7.30;64.50
72428;BME280;60419;48.880;18.036;2024-01-11T05:19:11;100241.34;;;-7.73;66.14
72428;BME280;60419;48.880;18.036;2024-01-11T05:21:57;100267.91;;;-7.76;66.44
72428;BME280;60419;48.880;18.036;2024-01-11T05:24:43;100272.00;;;-8.08;67.79
72428;BME280;60419;48.880;18.036;2024-01-11T05:27:28;100274.25;;;-8.39;69.27
72428;BME280;60419;48.880;18.036;2024-01-11T05:30:14;100265.94;;;-8.08;69.47
72428;BME280;60419;48.880;18.036;2024-01-11T05:32:59;100253.75;;;-7.83;67.87
72428;BME280;60419;48.880;18.036;2024-01-11T05:35:45;100283.47;;;-8.09;68.66
72428;BME280;60419;48.880;18.036;2024-01-11T05:38:30;100271.13;;;-8.60;70.50
72428;BME280;60419;48.880;18.036;2024-01-11T05:41:15;100262.34;;;-8.51;70.13
72428;BME280;60419;48.880;18.036;2024-01-11T05:44:01;100273.94;;;-8.36;70.48
72428;BME280;60419;48.880;18.036;2024-01-11T05:46:46;100256.53;;;-8.81;71.30
72428;BME280;60419;48.880;18.036;2024-01-11T05:49:32;100249.03;;;-8.58;71.56
72428;BME280;60419;48.880;18.036;2024-01-11T05:52:17;100261.50;;;-8.34;71.46
72428;BME280;60419;48.880;18.036;2024-01-11T05:55:02;100264.16;;;-7.73;69.96
72428;BME280;60419;48.880;18.036;2024-01-11T05:57:48;100262.41;;;-7.65;67.68
72428;BME280;60419;48.880;18.036;2024-01-11T06:00:34;100248.59;;;-7.75;67.45
72428;BME280;60419;48.880;18.036;2024-01-11T06:03:19;100243.84;;;-7.71;66.91
72428;BME280;60419;48.880;18.036;2024-01-11T06:06:06;100236.06;;;-7.81;66.37
72428;BME280;60419;48.880;18.036;2024-01-11T06:08:52;100242.41;;;-7.57;65.87
72428;BME280;60419;48.880;18.036;2024-01-11T06:11:37;100242.72;;;-7.61;65.57
72428;BME280;60419;48.880;18.036;2024-01-11T06:14:22;100241.06;;;-7.03;79.65
72428;BME280;60419;48.880;18.036;2024-01-11T06:17:08;100237.69;;;-7.54;71.81
72428;BME280;60419;48.880;18.036;2024-01-11T06:19:56;100231.31;;;-7.43;69.10
72428;BME280;60419;48.880;18.036;2024-01-11T06:22:41;100218.38;;;-8.13;68.76
72428;BME280;60419;48.880;18.036;2024-01-11T06:25:26;100243.97;;;-8.07;69.20
72428;BME280;60419;48.880;18.036;2024-01-11T06:28:12;100215.66;;;-8.30;69.58
72428;BME280;60419;48.880;18.036;2024-01-11T06:30:58;100247.34;;;-7.89;68.06
72428;BME280;60419;48.880;18.036;2024-01-11T06:33:43;100244.44;;;-8.12;68.42
72428;BME280;60419;48.880;18.036;2024-01-11T06:36:29;100241.56;;;-8.27;69.24
72428;BME280;60419;48.880;18.036;2024-01-11T06:39:15;100232.97;;;-8.11;69.01
72428;BME280;60419;48.880;18.036;2024-01-11T06:42:00;100231.94;;;-7.92;67.74
72428;BME280;60419;48.880;18.036;2024-01-11T06:44:46;100230.75;;;-7.63;67.21
72428;BME280;60419;48.880;18.036;2024-01-11T06:47:32;100243.63;;;-7.44;65.86
72428;BME280;60419;48.880;18.036;2024-01-11T06:50:17;100246.28;;;-7.27;64.89
72428;BME280;60419;48.880;18.036;2024-01-11T06:53:02;100241.44;;;-7.56;64.89
72428;BME280;60419;48.880;18.036;2024-01-11T06:55:48;100239.38;;;-7.79;66.64
72428;BME280;60419;48.880;18.036;2024-01-11T06:58:33;100200.38;;;-7.66;65.48
72428;BME280;60419;48.880;18.036;2024-01-11T07:01:19;100233.75;;;-7.50;64.61
72428;BME280;60419;48.880;18.036;2024-01-11T07:04:04;100239.63;;;-7.56;65.12
72428;BME280;60419;48.880;18.036;2024-01-11T07:06:49;100238.06;;;-7.41;65.03
72428;BME280;60419;48.880;18.036;2024-01-11T07:09:35;100236.09;;;-7.39;64.28
72428;BME280;60419;48.880;18.036;2024-01-11T07:12:20;100225.28;;;-7.35;64.46
72428;BME280;60419;48.880;18.036;2024-01-11T07:15:06;100215.41;;;-7.33;64.29
72428;BME280;60419;48.880;18.036;2024-01-11T07:17:53;100215.25;;;-7.32;64.17
72428;BME280;60419;48.880;18.036;2024-01-11T07:20:38;100215.81;;;-7.12;63.75
72428;BME280;60419;48.880;18.036;2024-01-11T07:23:24;100200.72;;;-7.10;64.15
72428;BME280;60419;48.880;18.036;2024-01-11T07:26:09;100199.34;;;-7.81;64.94
72428;BME280;60419;48.880;18.036;2024-01-11T07:28:54;100211.31;;;-7.36;69.50
72428;BME280;60419;48.880;18.036;2024-01-11T07:31:40;100201.81;;;-7.21;67.18
72428;BME280;60419;48.880;18.036;2024-01-11T07:34:26;100190.84;;;-6.83;66.09
72428;BME280;60419;48.880;18.036;2024-01-11T07:37:11;100187.19;;;-6.66;65.52
72428;BME280;60419;48.880;18.036;2024-01-11T07:39:57;100193.78;;;-7.27;65.78
72428;BME280;60419;48.880;18.036;2024-01-11T07:42:43;100193.66;;;-7.68;67.21
72428;BME280;60419;48.880;18.036;2024-01-11T07:45:28;100191.31;;;-8.92;70.20
72428;BME280;60419;48.880;18.036;2024-01-11T07:48:14;100181.28;;;-8.53;70.78
72428;BME280;60419;48.880;18.036;2024-01-11T07:50:59;100146.09;;;-9.56;73.38
72428;BME280;60419;48.880;18.036;2024-01-11T07:53:45;100181.56;;;-8.82;72.74
72428;BME280;60419;48.880;18.036;2024-01-11T07:56:30;100178.97;;;-8.30;71.09
72428;BME280;60419;48.880;18.036;2024-01-11T07:59:15;100166.97;;;-8.06;70.26
72428;BME280;60419;48.880;18.036;2024-01-11T08:02:01;100157.97;;;-7.36;68.56
72428;BME280;60419;48.880;18.036;2024-01-11T08:04:47;100153.72;;;-6.80;66.84
72428;BME280;60419;48.880;18.036;2024-01-11T08:07:32;100148.81;;;-7.00;66.58
72428;BME280;60419;48.880;18.036;2024-01-11T08:10:18;100140.66;;;-6.41;65.51
72428;BME280;60419;48.880;18.036;2024-01-11T08:13:03;100118.38;;;-6.14;64.49
72428;BME280;60419;48.880;18.036;2024-01-11T08:15:49;100125.63;;;-6.88;65.99
72428;BME280;60419;48.880;18.036;2024-01-11T08:18:34;100115.28;;;-6.17;65.52
72428;BME280;60419;48.880;18.036;2024-01-11T08:21:19;100109.13;;;-6.01;64.23
72428;BME280;60419;48.880;18.036;2024-01-11T08:24:05;100117.88;;;-6.57;65.70
72428;BME280;60419;48.880;18.036;2024-01-11T08:26:52;100121.94;;;-5.98;64.50
72428;BME280;60419;48.880;18.036;2024-01-11T08:29:37;100120.34;;;-6.08;63.60
72428;BME280;60419;48.880;18.036;2024-01-11T08:32:23;100118.94;;;-6.35;64.53
72428;BME280;60419;48.880;18.036;2024-01-11T08:35:09;100123.66;;;-6.69;65.39
72428;BME280;60419;48.880;18.036;2024-01-11T08:37:55;100129.44;;;-7.23;67.32
72428;BME280;60419;48.880;18.036;2024-01-11T08:40:40;100130.91;;;-7.37;68.39
72428;BME280;60419;48.880;18.036;2024-01-11T08:43:26;100090.84;;;-7.64;69.19
72428;BME280;60419;48.880;18.036;2024-01-11T08:46:12;100123.09;;;-7.96;69.74
72428;BME280;60419;48.880;18.036;2024-01-11T08:48:57;100113.47;;;-8.21;71.69
72428;BME280;60419;48.880;18.036;2024-01-11T08:51:42;100109.81;;;-7.86;71.93
72428;BME280;60419;48.880;18.036;2024-01-11T08:54:28;100108.13;;;-7.20;69.73
72428;BME280;60419;48.880;18.036;2024-01-11T08:57:13;100110.66;;;-6.79;68.03
72428;BME280;60419;48.880;18.036;2024-01-11T08:59:59;100131.34;;;-6.76;67.06
72428;BME280;60419;48.880;18.036;2024-01-11T09:02:44;100101.38;;;-6.34;65.09
72428;BME280;60419;48.880;18.036;2024-01-11T09:05:30;100108.19;;;-6.64;65.69
72428;BME280;60419;48.880;18.036;2024-01-11T09:08:17;100107.88;;;-5.74;63.98
72428;BME280;60419;48.880;18.036;2024-01-11T09:11:02;100111.97;;;-6.11;64.48
72428;BME280;60419;48.880;18.036;2024-01-11T09:13:48;100102.31;;;-5.56;62.77
72428;BME280;60419;48.880;18.036;2024-01-11T09:16:33;100092.69;;;-5.03;61.27
72428;BME280;60419;48.880;18.036;2024-01-11T09:19:19;100090.91;;;-5.26;61.67
72428;BME280;60419;48.880;18.036;2024-01-11T09:22:04;100100.38;;;-4.79;61.85
72428;BME280;60419;48.880;18.036;2024-01-11T09:24:50;100091.16;;;-4.98;62.41
72428;BME280;60419;48.880;18.036;2024-01-11T09:27:35;100103.06;;;-4.49;61.16
72428;BME280;60419;48.880;18.036;2024-01-11T09:30:21;100104.41;;;-4.53;59.72
72428;BME280;60419;48.880;18.036;2024-01-11T09:33:06;100101.38;;;-4.80;59.28
72428;BME280;60419;48.880;18.036;2024-01-11T09:35:51;100090.50;;;-5.00;59.73
72428;BME280;60419;48.880;18.036;2024-01-11T09:38:37;100081.50;;;-4.67;58.50
72428;BME280;60419;48.880;18.036;2024-01-11T09:41:23;100050.16;;;-4.11;56.96
72428;BME280;60419;48.880;18.036;2024-01-11T09:44:09;100046.72;;;-4.12;56.80
72428;BME280;60419;48.880;18.036;2024-01-11T09:46:54;100051.88;;;-3.67;57.13
72428;BME280;60419;48.880;18.036;2024-01-11T09:49:41;100046.66;;;-3.60;57.74
72428;BME280;60419;48.880;18.036;2024-01-11T09:52:28;100002.06;;;-3.92;58.09
72428;BME280;60419;48.880;18.036;2024-01-11T09:55:13;100029.59;;;-3.36;58.49
72428;BME280;60419;48.880;18.036;2024-01-11T09:57:59;100024.91;;;-3.84;59.50
72428;BME280;60419;48.880;18.036;2024-01-11T10:00:46;100039.25;;;-3.50;58.11
72428;BME280;60419;48.880;18.036;2024-01-11T10:03:32;100007.72;;;-3.52;57.56
72428;BME280;60419;48.880;18.036;2024-01-11T10:06:19;99992.22;;;-3.33;57.62
72428;BME280;60419;48.880;18.036;2024-01-11T10:09:04;99984.53;;;-3.28;58.57
72428;BME280;60419;48.880;18.036;2024-01-11T10:11:50;99987.13;;;-3.35;57.47
72428;BME280;60419;48.880;18.036;2024-01-11T10:14:38;100000.63;;;-2.95;57.68
72428;BME280;60419;48.880;18.036;2024-01-11T10:17:23;99985.59;;;-2.53;55.56
72428;BME280;60419;48.880;18.036;2024-01-11T10:20:15;99989.06;;;-2.52;54.61
72428;BME280;60419;48.880;18.036;2024-01-11T10:23:02;99984.19;;;-2.49;55.00
72428;BME280;60419;48.880;18.036;2024-01-11T10:25:47;99948.94;;;-2.63;54.71
72428;BME280;60419;48.880;18.036;2024-01-11T10:28:33;99966.31;;;-2.40;54.58
72428;BME280;60419;48.880;18.036;2024-01-11T10:31:22;99982.91;;;-2.05;53.45
72428;BME280;60419;48.880;18.036;2024-01-11T10:34:12;99997.94;;;-2.19;53.75
72428;BME280;60419;48.880;18.036;2024-01-11T10:36:58;99984.38;;;-1.96;53.76
72428;BME280;60419;48.880;18.036;2024-01-11T10:39:45;99992.88;;;-2.62;55.02
72428;BME280;60419;48.880;18.036;2024-01-11T10:42:32;99988.03;;;-2.58;54.29
72428;BME280;60419;48.880;18.036;2024-01-11T10:45:20;99962.22;;;-2.49;53.64
72428;BME280;60419;48.880;18.036;2024-01-11T10:48:25;99991.06;;;-2.96;53.42
72428;BME280;60419;48.880;18.036;2024-01-11T10:51:12;99992.19;;;-4.04;56.76
72428;BME280;60419;48.880;18.036;2024-01-11T10:54:00;99962.34;;;-3.83;55.43
72428;BME280;60419;48.880;18.036;2024-01-11T10:56:47;99981.72;;;-3.48;55.01
72428;BME280;60419;48.880;18.036;2024-01-11T10:59:34;99968.59;;;-2.79;54.48
72428;BME280;60419;48.880;18.036;2024-01-11T11:02:21;99932.31;;;-3.54;55.98
72428;BME280;60419;48.880;18.036;2024-01-11T11:05:08;99960.50;;;-3.05;54.77
72428;BME280;60419;48.880;18.036;2024-01-11T11:07:56;99954.38;;;-2.71;53.76
72428;BME280;60419;48.880;18.036;2024-01-11T11:10:43;99970.28;;;-2.16;51.98
72428;BME280;60419;48.880;18.036;2024-01-11T11:13:31;99952.88;;;-2.39;51.93
72428;BME280;60419;48.880;18.036;2024-01-11T11:16:16;99932.00;;;-2.14;50.26
72428;BME280;60419;48.880;18.036;2024-01-11T11:19:02;99953.97;;;-2.20;50.15
72428;BME280;60419;48.880;18.036;2024-01-11T11:21:48;99921.66;;;-1.62;49.71
72428;BME280;60419;48.880;18.036;2024-01-11T11:24:34;99943.25;;;-1.45;48.57
72428;BME280;60419;48.880;18.036;2024-01-11T11:27:20;99942.84;;;-1.69;48.47
72428;BME280;60419;48.880;18.036;2024-01-11T11:30:06;99942.53;;;-0.81;47.65
72428;BME280;60419;48.880;18.036;2024-01-11T11:32:51;99934.00;;;-0.89;46.82
72428;BME280;60419;48.880;18.036;2024-01-11T11:35:37;99926.69;;;-0.49;46.51
72428;BME280;60419;48.880;18.036;2024-01-11T11:38:27;99921.16;;;0.23;45.23
72428;BME280;60419;48.880;18.036;2024-01-11T11:41:16;99909.78;;;0.16;44.86
72428;BME280;60419;48.880;18.036;2024-01-11T11:44:02;99916.16;;;0.58;46.18
72428;BME280;60419;48.880;18.036;2024-01-11T11:46:49;99903.53;;;0.72;46.18
72428;BME280;60419;48.880;18.036;2024-01-11T11:50:09;99902.38;;;0.86;46.43
72428;BME280;60419;48.880;18.036;2024-01-11T11:52:56;99904.13;;;0.56;45.44
72428;BME280;60419;48.880;18.036;2024-01-11T11:55:44;99894.53;;;0.29;46.70
72428;BME280;60419;48.880;18.036;2024-01-11T11:58:31;99894.63;;;0.16;48.69
72428;BME280;60419;48.880;18.036;2024-01-11T12:01:17;99888.94;;;0.81;46.95
72428;BME280;60419;48.880;18.036;2024-01-11T12:04:02;99878.16;;;0.94;46.01
72428;BME280;60419;48.880;18.036;2024-01-11T12:06:48;99872.38;;;0.97;46.52
72428;BME280;60419;48.880;18.036;2024-01-11T12:09:33;99858.56;;;0.52;47.22
72428;BME280;60419;48.880;18.036;2024-01-11T12:12:19;99857.78;;;0.45;47.96
72428;BME280;60419;48.880;18.036;2024-01-11T12:15:06;99820.56;;;0.01;49.23
72428;BME280;60419;48.880;18.036;2024-01-11T12:17:58;99807.78;;;-0.40;50.79
72428;BME280;60419;48.880;18.036;2024-01-11T12:20:44;99822.88;;;-0.34;51.18
72428;BME280;60419;48.880;18.036;2024-01-11T12:23:30;99821.53;;;-0.18;51.04
72428;BME280;60419;48.880;18.036;2024-01-11T12:26:16;99815.63;;;-0.45;51.93
72428;BME280;60419;48.880;18.036;2024-01-11T12:29:07;99817.91;;;0.26;50.21
72428;BME280;60419;48.880;18.036;2024-01-11T12:31:56;99820.00;;;0.80;49.90
72428;BME280;60419;48.880;18.036;2024-01-11T12:34:43;99793.19;;;0.81;48.11
72428;BME280;60419;48.880;18.036;2024-01-11T12:37:30;99823.91;;;1.14;47.87
72428;BME280;60419;48.880;18.036;2024-01-11T12:40:16;99810.16;;;1.17;46.66
72428;BME280;60419;48.880;18.036;2024-01-11T12:43:01;99793.03;;;0.76;46.62
72428;BME280;60419;48.880;18.036;2024-01-11T12:45:47;99778.63;;;0.28;47.93
72428;BME280;60419;48.880;18.036;2024-01-11T12:48:32;99772.44;;;0.53;48.25
72428;BME280;60419;48.880;18.036;2024-01-11T12:51:17;99781.31;;;0.47;48.40
72428;BME280;60419;48.880;18.036;2024-01-11T12:54:03;99783.16;;;0.65;47.60
72428;BME280;60419;48.880;18.036;2024-01-11T12:56:49;99782.47;;;0.69;47.74
72428;BME280;60419;48.880;18.036;2024-01-11T12:59:35;99762.25;;;0.68;47.44
72428;BME280;60419;48.880;18.036;2024-01-11T13:02:20;99762.41;;;1.34;46.14
72428;BME280;60419;48.880;18.036;2024-01-11T13:05:06;99759.38;;;1.72;45.70
72428;BME280;60419;48.880;18.036;2024-01-11T13:07:54;99755.41;;;1.51;45.79
72428;BME280;60419;48.880;18.036;2024-01-11T13:10:40;99760.41;;;1.83;45.89
72428;BME280;60419;48.880;18.036;2024-01-11T13:13:25;99739.56;;;1.92;45.40
72428;BME280;60419;48.880;18.036;2024-01-11T13:16:11;99753.59;;;1.99;45.23
72428;BME280;60419;48.880;18.036;2024-01-11T13:18:59;99748.44;;;1.50;46.52
72428;BME280;60419;48.880;18.036;2024-01-11T13:21:45;99745.13;;;2.02;45.64
72428;BME280;60419;48.880;18.036;2024-01-11T13:24:30;99742.09;;;2.10;46.76
72428;BME280;60419;48.880;18.036;2024-01-11T13:27:16;99742.94;;;1.99;46.21
72428;BME280;60419;48.880;18.036;2024-01-11T13:30:01;99741.28;;;1.51;47.39
72428;BME280;60419;48.880;18.036;2024-01-11T13:32:46;99739.63;;;1.38;47.12
72428;BME280;60419;48.880;18.036;2024-01-11T13:35:32;99742.63;;;1.41;46.98
72428;BME280;60419;48.880;18.036;2024-01-11T13:38:18;99741.53;;;1.61;45.98
72428;BME280;60419;48.880;18.036;2024-01-11T13:41:03;99737.00;;;1.73;45.59
72428;BME280;60419;48.880;18.036;2024-01-11T13:43:50;99726.47;;;1.78;44.83
72428;BME280;60419;48.880;18.036;2024-01-11T13:46:35;99725.31;;;1.51;44.81
72428;BME280;60419;48.880;18.036;2024-01-11T13:49:21;99720.59;;;2.00;44.38
72428;BME280;60419;48.880;18.036;2024-01-11T13:52:07;99727.97;;;2.10;44.33
72428;BME280;60419;48.880;18.036;2024-01-11T13:54:53;99723.03;;;2.54;43.34
72428;BME280;60419;48.880;18.036;2024-01-11T13:57:38;99724.28;;;1.75;45.02
72428;BME280;60419;48.880;18.036;2024-01-11T14:00:24;99690.44;;;1.76;44.60
72428;BME280;60419;48.880;18.036;2024-01-11T14:03:09;99728.00;;;1.98;44.75
72428;BME280;60419;48.880;18.036;2024-01-11T14:05:55;99726.84;;;2.05;44.65
72428;BME280;60419;48.880;18.036;2024-01-11T14:08:41;99706.97;;;2.37;44.30
72428;BME280;60419;48.880;18.036;2024-01-11T14:11:26;99704.66;;;2.40;44.17
72428;BME280;60419;48.880;18.036;2024-01-11T14:14:12;99706.97;;;2.37;44.35
72428;BME280;60419;48.880;18.036;2024-01-11T14:16:57;99693.09;;;1.99;45.39
72428;BME280;60419;48.880;18.036;2024-01-11T14:19:42;99697.75;;;2.04;45.88
72428;BME280;60419;48.880;18.036;2024-01-11T14:22:28;99688.06;;;2.38;45.14